sensor_id;sensor_type;location;lat;lon;timestamp;P1;durP1;ratioP1;P2;durP2;ratioP2
55758;SDS011;41678;52.126;20.664;2023-03-01T00:05:04;59.65;;;22.80;;
55758;SDS011;41678;52.126;20.664;2023-03-01T00:10:26;60.53;;;22.90;;
55758;SDS011;41678;52.126;20.664;2023-03-01T00:15:45;56.05;;;21.92;;
55758;SDS011;41678;52.126;20.664;2023-03-01T00:21:05;58.45;;;19.50;;
55758;SDS011;41678;52.126;20.664;2023-03-01T00:26:25;63.92;;;20.85;;
55758;SDS011;41678;52.126;20.664;2023-03-01T00:31:45;52.22;;;24.05;;
55758;SDS011;41678;52.126;20.664;2023-03-01T00:37:05;60.47;;;21.67;;
55758;SDS011;41678;52.126;20.664;2023-03-01T00:42:24;62.45;;;21.13;;
55758;SDS011;41678;52.126;20.664;2023-03-01T00:47:43;52.13;;;22.85;;
55758;SDS011;41678;52.126;20.664;2023-03-01T00:53:03;42.45;;;18.50;;
55758;SDS011;41678;52.126;20.664;2023-03-01T00:58:24;33.00;;;17.30;;
55758;SDS011;41678;52.126;20.664;2023-03-01T01:03:48;42.40;;;14.20;;
55758;SDS011;41678;52.126;20.664;2023-03-01T01:09:11;37.75;;;16.55;;
55758;SDS011;41678;52.126;20.664;2023-03-01T01:14:37;42.90;;;16.30;;
55758;SDS011;41678;52.126;20.664;2023-03-01T01:19:57;35.72;;;14.68;;
55758;SDS011;41678;52.126;20.664;2023-03-01T01:25:16;41.63;;;18.67;;
55758;SDS011;41678;52.126;20.664;2023-03-01T01:30:36;50.60;;;15.90;;
55758;SDS011;41678;52.126;20.664;2023-03-01T01:35:56;39.45;;;17.98;;
55758;SDS011;41678;52.126;20.664;2023-03-01T01:41:15;37.03;;;17.73;;
55758;SDS011;41678;52.126;20.664;2023-03-01T01:46:37;43.88;;;18.60;;
55758;SDS011;41678;52.126;20.664;2023-03-01T01:52:02;33.15;;;14.30;;
55758;SDS011;41678;52.126;20.664;2023-03-01T01:57:28;47.05;;;17.83;;
55758;SDS011;41678;52.126;20.664;2023-03-01T02:02:55;37.92;;;17.20;;
55758;SDS011;41678;52.126;20.664;2023-03-01T02:08:23;43.75;;;15.48;;
55758;SDS011;41678;52.126;20.664;2023-03-01T02:13:46;62.53;;;22.67;;
55758;SDS011;41678;52.126;20.664;2023-03-01T02:19:06;51.80;;;22.75;;
55758;SDS011;41678;52.126;20.664;2023-03-01T02:30:11;39.97;;;17.48;;
55758;SDS011;41678;52.126;20.664;2023-03-01T02:35:35;41.88;;;16.95;;
55758;SDS011;41678;52.126;20.664;2023-03-01T02:40:57;43.83;;;18.10;;
55758;SDS011;41678;52.126;20.664;2023-03-01T02:46:21;38.38;;;15.90;;
55758;SDS011;41678;52.126;20.664;2023-03-01T02:51:45;57.92;;;17.05;;
55758;SDS011;41678;52.126;20.664;2023-03-01T02:57:16;46.95;;;15.93;;
55758;SDS011;41678;52.126;20.664;2023-03-01T03:02:37;37.60;;;15.70;;
55758;SDS011;41678;52.126;20.664;2023-03-01T03:08:02;39.30;;;14.70;;
55758;SDS011;41678;52.126;20.664;2023-03-01T03:13:25;45.97;;;18.67;;
55758;SDS011;41678;52.126;20.664;2023-03-01T03:18:48;30.35;;;14.70;;
55758;SDS011;41678;52.126;20.664;2023-03-01T03:24:08;37.00;;;14.85;;
55758;SDS011;41678;52.126;20.664;2023-03-01T03:29:28;46.42;;;16.13;;
55758;SDS011;41678;52.126;20.664;2023-03-01T03:34:47;39.00;;;14.43;;
55758;SDS011;41678;52.126;20.664;2023-03-01T03:40:08;43.33;;;16.03;;
55758;SDS011;41678;52.126;20.664;2023-03-01T03:45:35;41.92;;;16.33;;
55758;SDS011;41678;52.126;20.664;2023-03-01T03:50:55;39.55;;;17.25;;
55758;SDS011;41678;52.126;20.664;2023-03-01T03:56:15;33.42;;;13.35;;
55758;SDS011;41678;52.126;20.664;2023-03-01T04:01:35;42.50;;;13.95;;
55758;SDS011;41678;52.126;20.664;2023-03-01T04:06:54;35.67;;;14.32;;
55758;SDS011;41678;52.126;20.664;2023-03-01T04:12:14;27.08;;;13.38;;
55758;SDS011;41678;52.126;20.664;2023-03-01T04:17:33;30.65;;;14.48;;
55758;SDS011;41678;52.126;20.664;2023-03-01T04:23:06;32.17;;;13.95;;
55758;SDS011;41678;52.126;20.664;2023-03-01T04:28:40;38.00;;;14.43;;
55758;SDS011;41678;52.126;20.664;2023-03-01T04:34:04;27.65;;;11.57;;
55758;SDS011;41678;52.126;20.664;2023-03-01T04:39:24;45.53;;;12.30;;
55758;SDS011;41678;52.126;20.664;2023-03-01T04:44:44;32.80;;;13.02;;
55758;SDS011;41678;52.126;20.664;2023-03-01T04:50:04;34.00;;;13.10;;
55758;SDS011;41678;52.126;20.664;2023-03-01T04:55:27;26.23;;;13.15;;
55758;SDS011;41678;52.126;20.664;2023-03-01T05:00:48;37.30;;;12.60;;
55758;SDS011;41678;52.126;20.664;2023-03-01T05:06:07;31.98;;;12.98;;
55758;SDS011;41678;52.126;20.664;2023-03-01T05:11:27;31.45;;;14.18;;
55758;SDS011;41678;52.126;20.664;2023-03-01T05:16:51;26.77;;;13.48;;
55758;SDS011;41678;52.126;20.664;2023-03-01T05:22:10;29.73;;;12.48;;
55758;SDS011;41678;52.126;20.664;2023-03-01T05:27:30;34.28;;;11.48;;
55758;SDS011;41678;52.126;20.664;2023-03-01T05:32:50;26.52;;;11.30;;
55758;SDS011;41678;52.126;20.664;2023-03-01T05:38:14;47.20;;;12.10;;
55758;SDS011;41678;52.126;20.664;2023-03-01T05:43:35;27.70;;;15.05;;
55758;SDS011;41678;52.126;20.664;2023-03-01T05:48:54;33.13;;;12.02;;
55758;SDS011;41678;52.126;20.664;2023-03-01T05:54:15;36.92;;;12.93;;
55758;SDS011;41678;52.126;20.664;2023-03-01T05:59:35;36.78;;;12.80;;
55758;SDS011;41678;52.126;20.664;2023-03-01T06:04:54;41.08;;;15.57;;
55758;SDS011;41678;52.126;20.664;2023-03-01T06:10:17;45.08;;;15.82;;
55758;SDS011;41678;52.126;20.664;2023-03-01T06:15:39;39.08;;;14.27;;
55758;SDS011;41678;52.126;20.664;2023-03-01T06:21:00;28.33;;;12.73;;
55758;SDS011;41678;52.126;20.664;2023-03-01T06:26:20;56.40;;;12.40;;
55758;SDS011;41678;52.126;20.664;2023-03-01T06:31:40;32.78;;;11.55;;
55758;SDS011;41678;52.126;20.664;2023-03-01T06:36:59;29.77;;;10.82;;
55758;SDS011;41678;52.126;20.664;2023-03-01T06:42:19;30.20;;;12.75;;
55758;SDS011;41678;52.126;20.664;2023-03-01T06:47:39;29.75;;;13.32;;
55758;SDS011;41678;52.126;20.664;2023-03-01T06:52:58;37.55;;;15.15;;
55758;SDS011;41678;52.126;20.664;2023-03-01T06:58:18;35.90;;;14.98;;
55758;SDS011;41678;52.126;20.664;2023-03-01T07:03:38;36.03;;;12.30;;
55758;SDS011;41678;52.126;20.664;2023-03-01T07:08:57;29.65;;;12.50;;
55758;SDS011;41678;52.126;20.664;2023-03-01T07:14:17;32.83;;;11.52;;
55758;SDS011;41678;52.126;20.664;2023-03-01T07:19:39;51.80;;;15.80;;
55758;SDS011;41678;52.126;20.664;2023-03-01T07:24:58;32.30;;;9.50;;
55758;SDS011;41678;52.126;20.664;2023-03-01T07:30:18;21.65;;;7.72;;
55758;SDS011;41678;52.126;20.664;2023-03-01T07:35:38;38.55;;;15.15;;
55758;SDS011;41678;52.126;20.664;2023-03-01T07:40:59;34.10;;;13.85;;
55758;SDS011;41678;52.126;20.664;2023-03-01T07:46:20;25.30;;;12.13;;
55758;SDS011;41678;52.126;20.664;2023-03-01T07:51:39;28.52;;;11.75;;
55758;SDS011;41678;52.126;20.664;2023-03-01T07:56:59;25.63;;;11.77;;
55758;SDS011;41678;52.126;20.664;2023-03-01T08:02:18;22.42;;;9.18;;
55758;SDS011;41678;52.126;20.664;2023-03-01T08:07:38;31.90;;;12.35;;
55758;SDS011;41678;52.126;20.664;2023-03-01T08:12:57;22.08;;;10.98;;
55758;SDS011;41678;52.126;20.664;2023-03-01T08:18:17;26.95;;;9.77;;
55758;SDS011;41678;52.126;20.664;2023-03-01T08:23:38;13.27;;;6.20;;
55758;SDS011;41678;52.126;20.664;2023-03-01T08:28:59;28.30;;;12.23;;
55758;SDS011;41678;52.126;20.664;2023-03-01T08:34:19;18.52;;;8.60;;
55758;SDS011;41678;52.126;20.664;2023-03-01T08:39:39;71.90;;;16.20;;
55758;SDS011;41678;52.126;20.664;2023-03-01T08:45:00;35.78;;;11.30;;
55758;SDS011;41678;52.126;20.664;2023-03-01T08:50:19;26.45;;;11.38;;
55758;SDS011;41678;52.126;20.664;2023-03-01T08:55:39;44.00;;;10.95;;
55758;SDS011;41678;52.126;20.664;2023-03-01T09:00:58;24.00;;;9.93;;
55758;SDS011;41678;52.126;20.664;2023-03-01T09:06:18;17.55;;;8.10;;
55758;SDS011;41678;52.126;20.664;2023-03-01T09:11:38;26.42;;;10.73;;
55758;SDS011;41678;52.126;20.664;2023-03-01T09:16:58;28.33;;;9.70;;
55758;SDS011;41678;52.126;20.664;2023-03-01T09:22:18;32.90;;;11.77;;
55758;SDS011;41678;52.126;20.664;2023-03-01T09:27:37;24.95;;;9.93;;
55758;SDS011;41678;52.126;20.664;2023-03-01T09:32:57;30.92;;;12.05;;
55758;SDS011;41678;52.126;20.664;2023-03-01T09:38:16;25.50;;;12.02;;
55758;SDS011;41678;52.126;20.664;2023-03-01T09:43:49;33.83;;;9.77;;
55758;SDS011;41678;52.126;20.664;2023-03-01T09:49:15;18.98;;;9.65;;
55758;SDS011;41678;52.126;20.664;2023-03-01T09:54:38;29.55;;;11.57;;
55758;SDS011;41678;52.126;20.664;2023-03-01T10:17:23;30.88;;;12.02;;
55758;SDS011;41678;52.126;20.664;2023-03-01T10:22:46;23.92;;;10.43;;
55758;SDS011;41678;52.126;20.664;2023-03-01T10:28:16;26.67;;;9.65;;
55758;SDS011;41678;52.126;20.664;2023-03-01T10:33:39;32.15;;;12.85;;
55758;SDS011;41678;52.126;20.664;2023-03-01T10:39:00;20.07;;;8.60;;
55758;SDS011;41678;52.126;20.664;2023-03-01T10:44:48;31.23;;;11.68;;
55758;SDS011;41678;52.126;20.664;2023-03-01T10:50:21;22.52;;;8.55;;
55758;SDS011;41678;52.126;20.664;2023-03-01T10:55:41;24.20;;;8.07;;
55758;SDS011;41678;52.126;20.664;2023-03-01T11:01:06;24.50;;;9.00;;
55758;SDS011;41678;52.126;20.664;2023-03-01T11:06:45;21.52;;;8.27;;
55758;SDS011;41678;52.126;20.664;2023-03-01T11:12:17;27.55;;;7.43;;
55758;SDS011;41678;52.126;20.664;2023-03-01T11:17:37;10.75;;;4.95;;
55758;SDS011;41678;52.126;20.664;2023-03-01T11:23:10;35.03;;;9.45;;
55758;SDS011;41678;52.126;20.664;2023-03-01T11:28:32;19.98;;;8.27;;
55758;SDS011;41678;52.126;20.664;2023-03-01T11:44:52;22.00;;;8.60;;
55758;SDS011;41678;52.126;20.664;2023-03-01T12:07:14;22.65;;;6.75;;
55758;SDS011;41678;52.126;20.664;2023-03-01T12:35:30;30.17;;;9.88;;
55758;SDS011;41678;52.126;20.664;2023-03-01T12:52:01;26.80;;;10.15;;
55758;SDS011;41678;52.126;20.664;2023-03-01T12:57:38;20.75;;;8.32;;
55758;SDS011;41678;52.126;20.664;2023-03-01T13:09:21;39.90;;;10.90;;
55758;SDS011;41678;52.126;20.664;2023-03-01T13:14:54;28.52;;;10.35;;
55758;SDS011;41678;52.126;20.664;2023-03-01T13:20:15;25.77;;;11.60;;
55758;SDS011;41678;52.126;20.664;2023-03-01T13:37:08;31.65;;;10.35;;
55758;SDS011;41678;52.126;20.664;2023-03-01T13:48:02;21.17;;;9.38;;
55758;SDS011;41678;52.126;20.664;2023-03-01T13:53:29;22.67;;;8.80;;
55758;SDS011;41678;52.126;20.664;2023-03-01T13:59:02;27.63;;;10.38;;
55758;SDS011;41678;52.126;20.664;2023-03-01T14:04:26;31.60;;;9.75;;
55758;SDS011;41678;52.126;20.664;2023-03-01T14:10:01;30.70;;;8.63;;
55758;SDS011;41678;52.126;20.664;2023-03-01T14:15:22;27.08;;;9.68;;
55758;SDS011;41678;52.126;20.664;2023-03-01T14:20:45;26.08;;;9.63;;
55758;SDS011;41678;52.126;20.664;2023-03-01T14:26:10;24.95;;;10.77;;
55758;SDS011;41678;52.126;20.664;2023-03-01T14:31:35;41.17;;;9.82;;
55758;SDS011;41678;52.126;20.664;2023-03-01T14:37:09;21.90;;;8.70;;
55758;SDS011;41678;52.126;20.664;2023-03-01T14:42:36;23.15;;;7.47;;
55758;SDS011;41678;52.126;20.664;2023-03-01T14:47:58;20.95;;;8.13;;
55758;SDS011;41678;52.126;20.664;2023-03-01T14:53:21;22.70;;;8.30;;
55758;SDS011;41678;52.126;20.664;2023-03-01T14:58:44;19.98;;;7.13;;
55758;SDS011;41678;52.126;20.664;2023-03-01T15:04:10;21.67;;;8.18;;
55758;SDS011;41678;52.126;20.664;2023-03-01T15:09:32;24.63;;;7.93;;
55758;SDS011;41678;52.126;20.664;2023-03-01T15:14:56;21.17;;;9.50;;
55758;SDS011;41678;52.126;20.664;2023-03-01T15:20:17;24.02;;;8.23;;
55758;SDS011;41678;52.126;20.664;2023-03-01T15:25:43;21.08;;;8.75;;
55758;SDS011;41678;52.126;20.664;2023-03-01T15:31:11;26.45;;;9.27;;
55758;SDS011;41678;52.126;20.664;2023-03-01T15:36:45;27.67;;;7.72;;
55758;SDS011;41678;52.126;20.664;2023-03-01T15:47:58;20.45;;;8.38;;
55758;SDS011;41678;52.126;20.664;2023-03-01T15:53:24;25.17;;;7.95;;
55758;SDS011;41678;52.126;20.664;2023-03-01T15:58:46;25.15;;;8.43;;
55758;SDS011;41678;52.126;20.664;2023-03-01T16:04:06;39.97;;;12.00;;
55758;SDS011;41678;52.126;20.664;2023-03-01T16:09:26;51.97;;;14.43;;
55758;SDS011;41678;52.126;20.664;2023-03-01T16:14:45;56.65;;;16.23;;
55758;SDS011;41678;52.126;20.664;2023-03-01T16:20:05;56.05;;;16.90;;
55758;SDS011;41678;52.126;20.664;2023-03-01T16:25:25;66.20;;;15.75;;
55758;SDS011;41678;52.126;20.664;2023-03-01T16:30:45;36.92;;;14.57;;
55758;SDS011;41678;52.126;20.664;2023-03-01T16:41:27;41.65;;;12.93;;
55758;SDS011;41678;52.126;20.664;2023-03-01T16:46:47;39.63;;;14.20;;
55758;SDS011;41678;52.126;20.664;2023-03-01T16:52:07;50.65;;;15.95;;
55758;SDS011;41678;52.126;20.664;2023-03-01T16:57:26;44.25;;;15.75;;
55758;SDS011;41678;52.126;20.664;2023-03-01T17:02:46;48.25;;;15.10;;
55758;SDS011;41678;52.126;20.664;2023-03-01T17:08:06;41.88;;;13.65;;
55758;SDS011;41678;52.126;20.664;2023-03-01T17:13:25;50.25;;;15.35;;
55758;SDS011;41678;52.126;20.664;2023-03-01T17:18:45;57.17;;;16.42;;
55758;SDS011;41678;52.126;20.664;2023-03-01T17:24:05;48.28;;;16.70;;
55758;SDS011;41678;52.126;20.664;2023-03-01T17:29:24;56.97;;;17.17;;
55758;SDS011;41678;52.126;20.664;2023-03-01T17:34:44;53.38;;;18.02;;
55758;SDS011;41678;52.126;20.664;2023-03-01T17:40:05;56.22;;;17.38;;
55758;SDS011;41678;52.126;20.664;2023-03-01T17:45:26;43.20;;;16.48;;
55758;SDS011;41678;52.126;20.664;2023-03-01T17:50:45;58.20;;;18.98;;
55758;SDS011;41678;52.126;20.664;2023-03-01T17:56:05;41.67;;;17.58;;
55758;SDS011;41678;52.126;20.664;2023-03-01T18:01:25;65.47;;;21.08;;
55758;SDS011;41678;52.126;20.664;2023-03-01T18:06:44;58.05;;;17.95;;
55758;SDS011;41678;52.126;20.664;2023-03-01T18:12:04;57.08;;;17.85;;
55758;SDS011;41678;52.126;20.664;2023-03-01T18:17:24;50.10;;;19.23;;
55758;SDS011;41678;52.126;20.664;2023-03-01T18:22:44;88.65;;;27.63;;
55758;SDS011;41678;52.126;20.664;2023-03-01T18:28:04;102.93;;;34.38;;
55758;SDS011;41678;52.126;20.664;2023-03-01T18:33:24;157.07;;;44.80;;
55758;SDS011;41678;52.126;20.664;2023-03-01T18:38:44;169.82;;;50.85;;
55758;SDS011;41678;52.126;20.664;2023-03-01T18:44:04;114.00;;;37.33;;
55758;SDS011;41678;52.126;20.664;2023-03-01T18:49:24;100.90;;;39.25;;
55758;SDS011;41678;52.126;20.664;2023-03-01T18:54:44;93.13;;;32.60;;
55758;SDS011;41678;52.126;20.664;2023-03-01T19:00:04;79.88;;;28.15;;
55758;SDS011;41678;52.126;20.664;2023-03-01T19:05:24;68.70;;;26.92;;
55758;SDS011;41678;52.126;20.664;2023-03-01T19:10:43;69.80;;;25.40;;
55758;SDS011;41678;52.126;20.664;2023-03-01T19:16:04;79.25;;;31.33;;
55758;SDS011;41678;52.126;20.664;2023-03-01T19:21:27;96.97;;;32.85;;
55758;SDS011;41678;52.126;20.664;2023-03-01T19:26:48;91.38;;;29.88;;
55758;SDS011;41678;52.126;20.664;2023-03-01T19:32:08;87.85;;;30.30;;
55758;SDS011;41678;52.126;20.664;2023-03-01T19:37:28;93.53;;;31.80;;
55758;SDS011;41678;52.126;20.664;2023-03-01T19:42:47;93.30;;;34.10;;
55758;SDS011;41678;52.126;20.664;2023-03-01T19:48:06;78.82;;;30.75;;
55758;SDS011;41678;52.126;20.664;2023-03-01T19:53:26;85.97;;;32.05;;
55758;SDS011;41678;52.126;20.664;2023-03-01T19:58:45;81.53;;;31.33;;
55758;SDS011;41678;52.126;20.664;2023-03-01T20:04:08;94.85;;;34.25;;
55758;SDS011;41678;52.126;20.664;2023-03-01T20:09:28;97.60;;;34.60;;
55758;SDS011;41678;52.126;20.664;2023-03-01T20:14:48;89.85;;;30.05;;
55758;SDS011;41678;52.126;20.664;2023-03-01T20:20:09;64.07;;;27.90;;
55758;SDS011;41678;52.126;20.664;2023-03-01T20:25:29;79.20;;;24.65;;
55758;SDS011;41678;52.126;20.664;2023-03-01T20:30:49;65.43;;;26.40;;
55758;SDS011;41678;52.126;20.664;2023-03-01T20:36:09;71.50;;;25.67;;
55758;SDS011;41678;52.126;20.664;2023-03-01T20:41:29;60.70;;;24.60;;
55758;SDS011;41678;52.126;20.664;2023-03-01T20:46:49;78.65;;;26.92;;
55758;SDS011;41678;52.126;20.664;2023-03-01T20:52:09;57.83;;;26.42;;
55758;SDS011;41678;52.126;20.664;2023-03-01T20:57:29;69.25;;;26.70;;
55758;SDS011;41678;52.126;20.664;2023-03-01T21:02:49;71.25;;;27.40;;
55758;SDS011;41678;52.126;20.664;2023-03-01T21:08:08;64.93;;;26.83;;
55758;SDS011;41678;52.126;20.664;2023-03-01T21:13:28;58.03;;;24.52;;
55758;SDS011;41678;52.126;20.664;2023-03-01T21:18:49;87.68;;;28.38;;
55758;SDS011;41678;52.126;20.664;2023-03-01T21:24:09;85.47;;;27.98;;
55758;SDS011;41678;52.126;20.664;2023-03-01T21:29:31;65.93;;;29.33;;
55758;SDS011;41678;52.126;20.664;2023-03-01T21:34:51;62.35;;;27.05;;
55758;SDS011;41678;52.126;20.664;2023-03-01T21:40:11;53.08;;;24.88;;
55758;SDS011;41678;52.126;20.664;2023-03-01T21:45:33;79.18;;;28.50;;
55758;SDS011;41678;52.126;20.664;2023-03-01T21:50:54;84.13;;;28.15;;
55758;SDS011;41678;52.126;20.664;2023-03-01T21:56:19;86.25;;;30.98;;
55758;SDS011;41678;52.126;20.664;2023-03-01T22:01:40;94.07;;;29.55;;
55758;SDS011;41678;52.126;20.664;2023-03-01T22:07:00;92.65;;;32.63;;
55758;SDS011;41678;52.126;20.664;2023-03-01T22:12:20;79.93;;;29.00;;
55758;SDS011;41678;52.126;20.664;2023-03-01T22:17:39;68.57;;;28.38;;
55758;SDS011;41678;52.126;20.664;2023-03-01T22:22:59;63.83;;;26.63;;
55758;SDS011;41678;52.126;20.664;2023-03-01T22:28:18;74.70;;;27.85;;
55758;SDS011;41678;52.126;20.664;2023-03-01T22:33:38;64.55;;;24.83;;
55758;SDS011;41678;52.126;20.664;2023-03-01T22:38:57;62.45;;;24.42;;
55758;SDS011;41678;52.126;20.664;2023-03-01T22:44:21;79.47;;;29.60;;
55758;SDS011;41678;52.126;20.664;2023-03-01T22:49:41;110.95;;;34.22;;
55758;SDS011;41678;52.126;20.664;2023-03-01T22:55:02;80.32;;;27.15;;
55758;SDS011;41678;52.126;20.664;2023-03-01T23:00:22;71.25;;;27.38;;
55758;SDS011;41678;52.126;20.664;2023-03-01T23:05:42;65.50;;;28.08;;
55758;SDS011;41678;52.126;20.664;2023-03-01T23:11:01;89.93;;;31.90;;
55758;SDS011;41678;52.126;20.664;2023-03-01T23:16:22;71.43;;;29.20;;
55758;SDS011;41678;52.126;20.664;2023-03-01T23:21:44;51.25;;;23.45;;
55758;SDS011;41678;52.126;20.664;2023-03-01T23:27:08;67.85;;;26.40;;
55758;SDS011;41678;52.126;20.664;2023-03-01T23:32:28;57.60;;;26.35;;
55758;SDS011;41678;52.126;20.664;2023-03-01T23:37:47;57.17;;;22.67;;
55758;SDS011;41678;52.126;20.664;2023-03-01T23:43:07;66.18;;;25.33;;
55758;SDS011;41678;52.126;20.664;2023-03-01T23:48:27;59.83;;;25.48;;
55758;SDS011;41678;52.126;20.664;2023-03-01T23:53:48;62.95;;;24.20;;
